createdAt,value
2022-11-17T00:01:07.614Z,99165.28
2022-11-17T00:04:10.485Z,99166.16
2022-11-17T00:07:14.484Z,99160.13
2022-11-17T00:10:18.039Z,99168.75
2022-11-17T00:13:39.858Z,99172.22
2022-11-17T00:16:43.159Z,99178.22
2022-11-17T00:20:04.822Z,99171.28
2022-11-17T00:23:07.797Z,99164.34
2022-11-17T00:26:11.001Z,99168.63
2022-11-17T00:29:14.487Z,99175.53
2022-11-17T00:32:37.444Z,99173.78
2022-11-17T00:35:41.803Z,99173.75
2022-11-17T00:38:44.589Z,99162.44
2022-11-17T00:41:48.540Z,99173.72
2022-11-17T00:44:51.491Z,99174.56
2022-11-17T00:47:54.626Z,99171.06
2022-11-17T00:50:57.039Z,99173.53
2022-11-17T00:54:00.003Z,99164.72
2022-11-17T00:57:04.180Z,99159.66
2022-11-17T01:00:08.243Z,99161.38
2022-11-17T01:03:12.024Z,99164.88
2022-11-17T01:06:17.789Z,99153.53
2022-11-17T01:09:23.421Z,99149.22
2022-11-17T01:12:26.162Z,99149.16
2022-11-17T01:15:28.845Z,99140.44
2022-11-17T01:18:32.271Z,99146.44
2022-11-17T01:21:35.656Z,99137.66
2022-11-17T01:24:38.965Z,99138.50
2022-11-17T01:27:41.922Z,99135.97
2022-11-17T01:30:46.695Z,99133.28
2022-11-17T01:33:51.348Z,99125.47
2022-11-17T01:37:14.785Z,99129.81
2022-11-17T01:40:17.545Z,99118.63
2022-11-17T01:43:45.039Z,99109.97
2022-11-17T01:46:49.163Z,99116.09
2022-11-17T01:49:56.376Z,99127.28
2022-11-17T01:53:02.754Z,99141.97
2022-11-17T01:56:11.805Z,99135.09
2022-11-17T01:59:23.257Z,99151.47
2022-11-17T02:02:31.599Z,99152.31
2022-11-17T02:54:47.121Z,99106.91
2022-11-17T02:57:51.387Z,99102.44
2022-11-17T03:01:22.187Z,99117.16
2022-11-17T03:04:36.539Z,99127.56
2022-11-17T03:07:50.802Z,99115.34
2022-11-17T03:11:08.801Z,99117.06
2022-11-17T03:14:25.696Z,99099.56
2022-11-17T03:17:49.095Z,99089.94
2022-11-17T03:20:59.655Z,99095.69
2022-11-17T03:24:18.881Z,99096.16
2022-11-17T03:27:25.541Z,99099.19
2022-11-17T03:30:34.617Z,99093.87
2022-11-17T03:33:44.940Z,99084.13
2022-11-17T03:36:53.555Z,99084.81
2022-11-17T03:40:03.353Z,99090.50
2022-11-17T03:43:11.951Z,99089.44
2022-11-17T03:46:17.896Z,99112.91
2022-11-17T03:49:27.965Z,99123.34
2022-11-17T03:52:33.165Z,99132.75
2022-11-17T03:56:02.413Z,99150.09
2022-11-17T03:59:10.972Z,99153.00
2022-11-17T04:02:17.401Z,99147.19
2022-11-17T04:05:20.838Z,99156.75
2022-11-17T04:08:26.077Z,99154.44
2022-11-17T04:11:47.847Z,99154.59
2022-11-17T04:15:11.502Z,99159.88
2022-11-17T04:18:19.777Z,99145.06
2022-11-17T04:21:22.480Z,99155.50
2022-11-17T04:24:25.671Z,99153.78
2022-11-17T04:27:48.873Z,99152.16
2022-11-17T04:30:52.136Z,99154.78
2022-11-17T04:34:01.974Z,99164.31
2022-11-17T04:37:17.266Z,99159.16
2022-11-17T04:40:20.383Z,99159.16
2022-11-17T04:43:23.224Z,99140.97
2022-11-17T04:46:26.357Z,99152.22
2022-11-17T04:49:32.315Z,99154.78
2022-11-17T04:52:36.425Z,99148.78
2022-11-17T04:55:42.755Z,99161.78
2022-11-17T04:58:52.370Z,99171.34
2022-11-17T05:02:01.064Z,99160.00
2022-11-17T05:05:09.060Z,99166.97
2022-11-17T05:08:12.380Z,99155.63
2022-11-17T05:11:36.074Z,99169.38
2022-11-17T05:14:40.822Z,99172.53
2022-11-17T05:17:43.884Z,99181.94
2022-11-17T05:20:46.955Z,99181.91
2022-11-17T05:23:55.841Z,99188.69
2022-11-17T05:26:58.911Z,99185.34
2022-11-17T05:30:10.510Z,99181.94
2022-11-17T05:33:14.648Z,99191.41
2022-11-17T05:36:19.136Z,99185.19
2022-11-17T05:39:26.150Z,99182.34
2022-11-17T05:42:29.295Z,99176.97
2022-11-17T05:45:32.834Z,99187.88
2022-11-17T05:48:36.004Z,99181.69
2022-11-17T05:51:39.505Z,99182.44
2022-11-17T05:54:42.671Z,99185.59
2022-11-17T05:57:47.101Z,99184.50
2022-11-17T06:00:58.488Z,99192.94
2022-11-17T06:04:04.923Z,99196.94
2022-11-17T06:07:07.999Z,99195.78
2022-11-17T06:10:17.948Z,99204.19
2022-11-17T06:13:29.820Z,99203.44
2022-11-17T06:16:37.345Z,99204.38
2022-11-17T06:19:44.345Z,99204.34
2022-11-17T06:22:55.752Z,99202.66
2022-11-17T06:26:01.749Z,99198.59
2022-11-17T06:29:05.858Z,99192.87
2022-11-17T06:32:17.081Z,99198.72
2022-11-17T06:35:22.861Z,99198.16
2022-11-17T06:38:29.819Z,99206.44
2022-11-17T06:41:36.898Z,99206.09
2022-11-17T06:44:46.750Z,99204.91
2022-11-17T06:47:54.359Z,99204.91
2022-11-17T06:51:04.823Z,99222.00
2022-11-17T06:54:13.257Z,99219.62
2022-11-17T06:57:19.019Z,99214.25
2022-11-17T07:00:24.008Z,99223.81
2022-11-17T07:03:27.218Z,99221.75
2022-11-17T07:06:34.150Z,99225.97
2022-11-17T07:09:38.089Z,99231.63
2022-11-17T07:12:42.056Z,99229.53
2022-11-17T07:15:46.057Z,99231.66
2022-11-17T07:18:50.172Z,99247.13
2022-11-17T07:21:59.671Z,99225.97
2022-11-17T07:25:04.855Z,99236.69
2022-11-17T07:28:13.802Z,99235.94
2022-11-17T07:31:22.338Z,99237.84
2022-11-17T07:34:25.752Z,99246.28
2022-11-17T07:37:33.662Z,99239.97
2022-11-17T07:40:36.389Z,99239.56
2022-11-17T07:43:39.997Z,99248.69
2022-11-17T07:46:43.138Z,99245.87
2022-11-17T07:49:46.371Z,99245.34
2022-11-17T07:52:50.928Z,99226.22
2022-11-17T07:55:57.251Z,99247.00
2022-11-17T07:59:03.850Z,99258.44
2022-11-17T08:02:10.560Z,99245.34
2022-11-17T08:05:17.906Z,99240.75
2022-11-17T08:08:22.479Z,99237.38
2022-11-17T08:11:29.198Z,99246.47
2022-11-17T08:14:31.999Z,99247.75
2022-11-17T08:17:37.510Z,99241.16
2022-11-17T08:20:41.054Z,99242.19
2022-11-17T08:23:44.346Z,99251.06
2022-11-17T08:26:50.280Z,99249.69
2022-11-17T08:29:53.486Z,99250.66
2022-11-17T08:33:00.634Z,99262.19
2022-11-17T08:36:07.185Z,99258.31
2022-11-17T08:39:10.526Z,99262.19
2022-11-17T08:42:13.810Z,99267.00
2022-11-17T08:45:18.372Z,99260.78
2022-11-17T08:48:23.844Z,99262.13
2022-11-17T08:51:29.660Z,99258.56
2022-11-17T08:54:34.042Z,99266.09
2022-11-17T08:57:38.765Z,99266.00
2022-11-17T09:00:42.399Z,99269.72
2022-11-17T09:03:47.370Z,99267.28
2022-11-17T09:06:51.483Z,99275.19
2022-11-17T09:09:55.185Z,99264.72
2022-11-17T09:12:58.874Z,99268.16
2022-11-17T09:16:07.163Z,99261.16
2022-11-17T09:19:11.088Z,99265.25
2022-11-17T09:22:13.986Z,99262.84
2022-11-17T09:25:16.991Z,99266.16
2022-11-17T09:28:27.153Z,99260.13
2022-11-17T09:31:30.329Z,99266.34
2022-11-17T09:34:33.479Z,99274.59
2022-11-17T09:37:38.450Z,99263.03
2022-11-17T09:40:43.979Z,99267.97
2022-11-17T09:43:53.705Z,99262.84
2022-11-17T09:47:04.781Z,99252.06
2022-11-17T09:50:31.650Z,99246.25
2022-11-17T09:54:00.664Z,99254.75
2022-11-17T09:57:07.702Z,99255.13
2022-11-17T10:00:16.205Z,99238.91
2022-11-17T10:03:28.875Z,99243.84
2022-11-17T10:06:32.550Z,99232.53
2022-11-17T10:09:45.774Z,99234.72
2022-11-17T10:12:58.842Z,99229.19
2022-11-17T10:16:06.882Z,99235.97
2022-11-17T10:19:20.748Z,99239.56
2022-11-17T10:22:35.793Z,99234.88
2022-11-17T10:25:43.039Z,99237.53
2022-11-17T10:29:09.409Z,99231.50
2022-11-17T10:32:15.386Z,99237.69
2022-11-17T10:35:26.916Z,99250.44
2022-11-17T10:38:35.862Z,99244.53
2022-11-17T10:41:42.381Z,99250.62
2022-11-17T10:44:51.511Z,99252.25
2022-11-17T10:48:24.782Z,99253.03
2022-11-17T10:51:33.125Z,99252.06
2022-11-17T10:54:37.123Z,99267.66
2022-11-17T10:57:45.787Z,99265.81
2022-11-17T11:01:01.860Z,99272.75
2022-11-17T11:04:08.050Z,99265.66
2022-11-17T11:07:17.890Z,99258.69
2022-11-17T11:10:41.447Z,99260.44
2022-11-17T11:13:53.409Z,99260.44
2022-11-17T11:16:56.605Z,99248.22
2022-11-17T11:20:00.108Z,99243.72
2022-11-17T11:23:14.879Z,99246.41
2022-11-17T11:26:47.969Z,99254.03
2022-11-17T11:30:05.526Z,99253.94
2022-11-17T11:33:23.876Z,99256.47
2022-11-17T11:36:55.118Z,99255.56
2022-11-17T11:40:23.060Z,99253.84
2022-11-17T11:43:39.948Z,99262.59
2022-11-17T11:46:52.308Z,99251.28
2022-11-17T11:50:04.384Z,99255.66
2022-11-17T11:53:31.844Z,99253.00
2022-11-17T11:56:42.162Z,99245.97
2022-11-17T12:00:00.879Z,99254.78
2022-11-17T12:03:34.040Z,99249.72
2022-11-17T12:06:54.910Z,99240.41
2022-11-17T12:10:16.186Z,99237.91
2022-11-17T12:13:24.293Z,99249.25
2022-11-17T12:16:35.162Z,99246.78
2022-11-17T12:20:09.269Z,99238.16
2022-11-17T12:23:20.375Z,99238.13
2022-11-17T12:26:34.134Z,99242.47
2022-11-17T12:29:48.252Z,99244.03
2022-11-17T12:32:56.790Z,99240.50
2022-11-17T12:36:30.463Z,99249.19
2022-11-17T12:39:54.965Z,99250.88
2022-11-17T12:43:38.816Z,99250.84
2022-11-17T12:46:48.114Z,99256.94
2022-11-17T12:50:06.956Z,99259.56
2022-11-17T12:53:12.210Z,99253.44
2022-11-17T12:56:34.033Z,99258.66
2022-11-17T13:00:00.013Z,99258.69
2022-11-17T13:03:14.892Z,99256.97
2022-11-17T13:06:35.296Z,99251.78
2022-11-17T13:09:39.195Z,99252.63
2022-11-17T13:12:42.982Z,99256.88
2022-11-17T13:16:00.793Z,99269.84
2022-11-17T13:19:34.377Z,99263.75
2022-11-17T13:22:41.941Z,99253.28
2022-11-17T13:25:49.067Z,99263.75
2022-11-17T13:29:10.836Z,99268.87
2022-11-17T13:32:21.351Z,99280.16
2022-11-17T13:35:39.769Z,99269.59
2022-11-17T13:38:53.256Z,99280.00
2022-11-17T13:41:58.956Z,99285.22
2022-11-17T13:45:06.322Z,99279.88
2022-11-17T13:48:33.160Z,99285.88
2022-11-17T13:51:46.304Z,99287.50
2022-11-17T13:54:57.711Z,99283.94
2022-11-17T13:58:05.568Z,99296.12
2022-11-17T14:01:13.931Z,99305.69
2022-11-17T14:04:24.720Z,99303.94
2022-11-17T14:07:31.905Z,99295.25
2022-11-17T14:10:39.151Z,99281.22
2022-11-17T14:14:01.404Z,99292.53
2022-11-17T14:17:22.913Z,99279.41
2022-11-17T14:20:27.846Z,99281.12
2022-11-17T14:23:37.161Z,99288.84
2022-11-17T14:26:44.928Z,99281.00
2022-11-17T14:29:54.060Z,99276.56
2022-11-17T14:33:09.040Z,99271.28
2022-11-17T14:36:19.870Z,99274.69
2022-11-17T14:39:24.521Z,99282.44
2022-11-17T14:42:32.869Z,99285.03
2022-11-17T14:45:39.492Z,99281.47
2022-11-17T14:48:43.379Z,99294.44
2022-11-17T14:52:00.140Z,99283.03
2022-11-17T14:55:05.892Z,99294.28
2022-11-17T14:58:10.282Z,99295.97
2022-11-17T15:01:20.545Z,99287.16
2022-11-17T15:08:08.849Z,99291.38
2022-11-17T15:11:17.892Z,99287.84
2022-11-17T15:14:23.211Z,99297.38
2022-11-17T15:17:30.366Z,99287.75
2022-11-17T15:20:36.826Z,99281.53
2022-11-17T15:23:47.185Z,99296.28
2022-11-17T15:26:52.857Z,99287.47
2022-11-17T15:29:59.093Z,99275.16
2022-11-17T15:33:19.765Z,99280.28
2022-11-17T15:36:32.862Z,99293.25
2022-11-17T15:39:39.842Z,99290.53
2022-11-17T15:42:44.087Z,99300.97
2022-11-17T15:46:21.558Z,99293.16
2022-11-17T15:49:34.430Z,99288.75
2022-11-17T15:53:02.940Z,99295.66
2022-11-17T15:56:14.361Z,99280.78
2022-11-17T15:59:21.183Z,99288.53
2022-11-17T16:02:25.834Z,99288.44
2022-11-17T16:05:30.864Z,99293.59
2022-11-17T16:08:37.069Z,99293.63
2022-11-17T16:11:47.798Z,99286.63
2022-11-17T16:14:58.581Z,99292.72
2022-11-17T16:18:04.056Z,99288.44
2022-11-17T16:21:12.847Z,99278.91
2022-11-17T16:24:32.845Z,99270.31
2022-11-17T16:27:42.855Z,99273.81
2022-11-17T16:30:49.482Z,99280.78
2022-11-17T16:34:09.004Z,99277.28
2022-11-17T16:37:22.798Z,99284.28
2022-11-17T16:40:35.918Z,99290.38
2022-11-17T16:43:51.999Z,99276.50
2022-11-17T16:47:00.391Z,99288.66
2022-11-17T16:50:09.842Z,99293.00
2022-11-17T16:53:16.875Z,99308.66
2022-11-17T16:56:37.077Z,99322.56
2022-11-17T16:59:42.497Z,99330.34
2022-11-17T17:02:57.969Z,99339.91
2022-11-17T17:06:19.270Z,99348.59
2022-11-17T17:09:32.804Z,99342.53
2022-11-17T17:12:37.845Z,99337.25
2022-11-17T17:15:40.801Z,99345.94
2022-11-17T17:18:50.742Z,99358.13
2022-11-17T17:22:01.824Z,99352.03
2022-11-17T17:25:22.840Z,99352.00
2022-11-17T17:28:33.544Z,99346.78
2022-11-17T17:31:39.794Z,99340.63
2022-11-17T17:34:45.294Z,99342.38
2022-11-17T17:37:48.710Z,99346.69
2022-11-17T17:40:52.827Z,99337.16
2022-11-17T17:44:02.983Z,99332.75
2022-11-17T17:47:07.018Z,99331.84
2022-11-17T17:50:10.355Z,99336.19
2022-11-17T17:53:14.905Z,99325.78
2022-11-17T17:56:22.027Z,99320.50
2022-11-17T17:59:30.042Z,99323.13
2022-11-17T18:02:38.030Z,99335.22
2022-11-17T18:05:46.522Z,99339.56
2022-11-17T18:09:04.063Z,99336.94
2022-11-17T18:12:09.098Z,99347.34
2022-11-17T18:15:19.287Z,99347.38
2022-11-17T18:18:26.030Z,99342.09
2022-11-17T18:21:31.863Z,99336.09
2022-11-17T18:24:40.733Z,99340.44
2022-11-17T18:27:45.637Z,99335.19
2022-11-17T18:30:51.174Z,99337.72
2022-11-17T18:34:01.824Z,99332.47
2022-11-17T18:37:19.237Z,99321.13
2022-11-17T18:40:22.444Z,99330.63
2022-11-17T18:43:34.819Z,99330.59
2022-11-17T18:46:41.420Z,99330.50
2022-11-17T18:49:53.401Z,99318.28
2022-11-17T18:53:06.067Z,99319.12
2022-11-17T18:56:13.152Z,99315.72
2022-11-17T18:59:19.966Z,99317.41
2022-11-17T19:02:24.373Z,99304.28
2022-11-17T19:05:36.874Z,99312.03
2022-11-17T19:08:41.150Z,99304.19
2022-11-17T19:11:46.521Z,99304.97
2022-11-17T19:15:10.747Z,99298.84
2022-11-17T19:18:15.973Z,99297.03
2022-11-17T19:21:38.825Z,99298.69
2022-11-17T19:24:48.844Z,99302.22
2022-11-17T19:28:01.808Z,99295.22
2022-11-17T19:31:24.733Z,99302.03
2022-11-17T19:34:35.817Z,99292.44
2022-11-17T19:37:41.845Z,99307.16
2022-11-17T19:40:46.213Z,99323.66
2022-11-17T19:44:00.061Z,99313.22
2022-11-17T19:47:13.829Z,99313.22
2022-11-17T19:50:17.513Z,99305.34
2022-11-17T19:53:43.871Z,99312.31
2022-11-17T19:56:49.809Z,99306.22
2022-11-17T19:59:54.654Z,99280.22
2022-11-17T20:03:01.769Z,99261.13
2022-11-17T20:06:11.027Z,99264.56
2022-11-17T20:09:23.317Z,99278.34
2022-11-17T20:12:42.744Z,99256.63
2022-11-17T20:15:57.094Z,99275.72
2022-11-17T20:19:03.996Z,99293.09
2022-11-17T20:22:17.854Z,99290.41
2022-11-17T20:25:26.807Z,99273.84
2022-11-17T20:28:35.910Z,99263.38
2022-11-17T20:31:41.095Z,99243.47
2022-11-17T20:34:44.997Z,99251.22
2022-11-17T20:37:49.173Z,99282.44
2022-11-17T20:41:02.048Z,99299.00
2022-11-17T20:44:24.868Z,99305.13
2022-11-17T20:47:33.002Z,99293.91
2022-11-17T20:50:42.845Z,99301.63
2022-11-17T20:53:47.816Z,99295.62
2022-11-17T20:56:52.209Z,99295.69
2022-11-17T21:00:04.108Z,99301.69
2022-11-17T21:03:08.999Z,99298.28
2022-11-17T21:06:14.828Z,99305.19
2022-11-17T21:09:26.054Z,99295.72
2022-11-17T21:12:33.800Z,99295.62
2022-11-17T21:15:45.187Z,99296.59
2022-11-17T21:18:49.801Z,99278.34
2022-11-17T21:21:55.095Z,99293.09
2022-11-17T21:24:58.782Z,99291.47
2022-11-17T21:28:08.146Z,99287.97
2022-11-17T21:31:15.799Z,99288.06
2022-11-17T21:34:22.792Z,99292.44
2022-11-17T21:37:28.061Z,99285.50
2022-11-17T21:40:31.770Z,99293.25
2022-11-17T21:43:42.896Z,99303.66
2022-11-17T21:46:47.733Z,99307.97
2022-11-17T21:49:57.696Z,99299.97
2022-11-17T21:53:11.097Z,99300.69
2022-11-17T21:56:14.420Z,99283.87
2022-11-17T21:59:17.931Z,99272.31
2022-11-17T22:02:28.719Z,99265.09
2022-11-17T22:05:37.793Z,99265.00
2022-11-17T22:08:43.542Z,99279.69
2022-11-17T22:11:51.821Z,99292.72
2022-11-17T22:14:55.813Z,99288.28
2022-11-17T22:17:59.418Z,99282.00
2022-11-17T22:21:06.904Z,99281.81
2022-11-17T22:24:12.847Z,99293.06
2022-11-17T22:27:15.825Z,99291.94
2022-11-17T22:30:22.118Z,99283.84
2022-11-17T22:33:24.999Z,99280.25
2022-11-17T22:36:28.863Z,99273.19
2022-11-17T22:39:31.668Z,99263.47
2022-11-17T22:42:34.781Z,99277.37
2022-11-17T22:45:40.233Z,99264.16
2022-11-17T22:48:46.161Z,99275.38
2022-11-17T22:52:04.137Z,99286.63
2022-11-17T22:55:08.803Z,99276.25
2022-11-17T22:58:15.960Z,99273.31
2022-11-17T23:01:19.879Z,99264.59
2022-11-17T23:04:23.537Z,99260.16
2022-11-17T23:07:26.657Z,99258.44
2022-11-17T23:10:30.202Z,99249.75
2022-11-17T23:13:33.803Z,99236.56
2022-11-17T23:16:37.768Z,99244.31
2022-11-17T23:19:41.436Z,99246.09
2022-11-17T23:22:45.012Z,99248.00
2022-11-17T23:25:47.936Z,99248.94
2022-11-17T23:28:51.286Z,99247.25
2022-11-17T23:31:54.237Z,99242.03
2022-11-17T23:34:57.409Z,99252.44
2022-11-17T23:38:00.445Z,99236.03
2022-11-17T23:41:07.589Z,99244.66
2022-11-17T23:44:11.101Z,99247.28
2022-11-17T23:47:13.878Z,99241.28
2022-11-17T23:50:17.147Z,99243.69
2022-11-17T23:53:20.277Z,99244.63
2022-11-17T23:56:23.559Z,99246.19
2022-11-17T23:59:26.414Z,99229.66
